TRINITY LAKE (CLE)

Elevation: 2370' · TRINITY R basin · Operator: US Bureau of Reclamation

Provisional data, subject to change.
Query executed Saturday at 16:04:50   clock

Select a sensor type for a plot of data.
Note: Reservoir Flows are daily averages.

Earlier

Date RES ELE    STORAGE    RES CHG    OUTFLOW    INFLOW    EVAP    FNF    RIV REL    PPT INC    SPILL    DIS PWR   
 FEET   AF   AF   CFS   CFS   CFS   CFS   CFS   INCHES   CFS   CFS  
11/21/2014 2193.98 552460 -58 416 387 0 387 0 0.21 0 416
11/22/2014 2194.68 556558 4098 361 2427 0 2427 0 1.59 0 361
11/23/2014 2194.98 558315 1757 491 1391 14 1391 0 0.06 0 491
11/24/2014 2195.08 558904 589 544 846 5 846 0 0.00 0 544
11/25/2014 2195.12 559140 236 577 701 5 701 0 0.00 0 577
11/26/2014 2195.12 559140 0 588 591 3 591 0 0.00 0 588
11/27/2014 2195.16 559376 236 394 513 0 513 0 0.00 0 394
11/28/2014 2195.18 559495 119 571 634 3 634 0 0.00 0 571
11/29/2014 2195.33 560380 885 577 1023 0 1023 0 0.78 0 577
11/30/2014 2195.54 561620 1240 366 998 7 998 0 0.19 0 366
12/01/2014 2195.75 562859 1239 286 913 2 913 0 0.06 0 286
12/02/2014 2196.00 564335 1476 280 1027 3 1027 0 0.00 0 280
12/03/2014 2196.78 568975 4640 236 2577 2 2577 0 0.45 0 236
12/04/2014 2197.94 575920 6945 280 3781 0 3781 0 0.43 0 280
12/05/2014 2198.86 581477 5557 284 3086 0 3086 0 0.00 0 284
12/06/2014 2200.98 594424 12947 282 6816 7 6816 0 0.50 0 282
12/07/2014 2201.91 600166 5742 277 3179 7 3179 0 0.00 0 277
12/08/2014 2203.26 608564 8398 284 4525 7 4525 0 0.30 0 284
12/09/2014 2204.43 615902 7338 510 4210 0 4210 0 0.07 0 510
12/10/2014 2205.57 623105 7203 3 3636 2 3636 0 0.00 0 3
12/11/2014 2212.75 669780 46675 423 23955 0 23955 0 2.20 0 423
12/12/2014 2215.33 687240 17460 163 8972 6 8972 0 0.18 0 163
12/13/2014 2216.72 696814 9574 0 4833 6 4833 0 0.24 0 0
12/14/2014 2217.62 703076 6262 350 3513 6 3513 0 0.00 0 350
12/15/2014 2218.37 708332 5256 451 3101 0 -- 0 0.10 0 451
12/16/2014 2219.07 713264 4932 482 2969 0 -- 0 0.25 0 482
12/17/2014 2220.13 720798 7534 0 3798 0 -- 0 0.35 0 0
12/18/2014 2220.97 726806 6008 374 3405 2 -- 0 0.23 0 374
12/19/2014 2222.24 735957 9151 467 5083 2 -- 0 0.92 0 467
12/20/2014 -- -- -- -- -- -- -- -- -- -- --

Later | Latest

Warning! This data is preliminary and subject to revision.

Show CLE Map | Plot CLE Data | 1 Month CLE Data | Real-Time CLE Data | CLE Info